Sycamore, Pennsylvania
Current Conditions -  °F | °C
As of 12:35 PM on Thursday 27 Nov 2014 (Local Time) from KAFJ Reporting Station
Overcast Overcast  
Wind Chill: 27°   Ceiling: 3600
Heat Index: 36°   Visibility: 10mi
Dew Point: 27°   Wind: 13mph
Humidity: 70%   Direction: 260°W
Pressure: 30.09"   Gusts: NA
Location:  39.93°N, 80.24°W
Report Text: KAFJ 271735Z 26011KT 10SM SCT025 BKN036 OVC070 02/M03 A3009 RMK AO1
Loading
Personal Weather Stations






























Interactive Weather Map New forecast layout! Learn more

10-Day Weather Forecast

Advertisements
Track Severe Weather on mobile